SBGLSBPS

Guest
Details From SBGL - Galeao Antonio Carlos Jombim
To SBPS - Porto Seguro
Flight Number -
Tags decoded
Created
Modified
Stats Distance 483 nm / 895 km
Max Altitude 0 ft / 0 m
Waypoints 3
Social Downloads 0
Likes 0
Share VATSIM

Download

Looking for another format? Having issues loading an existing format? Contact us
Advertisement - Login to hide

Notes

Requested: SBGL ADA POSGA PS012 PS013 PS001 SBPS Unmatched points: POSGA PS012 PS013 PS001

Route

SBGL ADA SBPS

ID Type Via Altitude Latitude Longitude Leg Dist Tot Dist Heading (true) Name
O SBGL APT - 0 ft / 0 m -22.80894˚ -43.24368˚ - 0 nm - Galeao Antonio Carlos Jombim
ADA NDB - 0 ft / 0 m -22.82296˚ -42.09649˚ 63 nm 63 nm 91° / 91° ALDEIA NDB
O SBPS APT - 0 ft / 0 m -16.43863˚ -39.08092˚ 419 nm 483 nm 25° / 23° Porto Seguro

Altitude Profile

Advertisement - Login to hide

Weather


0- 5 10 15 20 25 30 35+ Temperature / ° C

Clouds and Precipitation
Forecast for 2017-12-18 00:00 UTC. Updated 22 minutes ago

Ground ~20,000 ft ~40,000 ft Winds

SBGL

Details ICAO SBGL (GIG)
Name Galeao Antonio Carlos Jombim
Region Brazil
Timezone America/Sao_Paulo (UTC-2.0)
Stats Elevation 28 ft / 9 m (AMSL)
Location -22.808938° -43.243681°
Runways 2
Magnetic Variation 22.768° W

METAR

SBGL 172100Z 13006KT 9999 FEW025 FEW030TCU 33/20 Q1010

Decode

TAF

TAF TAF SBGL 171330Z 1718/1824 17015KT 9999 FEW025 FEW030TCU TN24/1808Z TX34/1817Z PROB30 1718/1721 17015G25KT 8000 TS SCT020 FEW030CB BECMG 1721/1723 14010KT BECMG 1801/1802 10005KT CAVOK BECMG 1803/1806 35005KT 7000 NSC BECMG 1809/1812 02005KT CAVOK BECMG 1813/1815 14015KT 9999 FEW025 BECMG 1816/1818 17015KT SCT025 FEW030TCU PROB30 1818/1822 17015G25KT 7000 TSRA BKN020 FEW030CB BECMG 1822/1823 14010KT 8000 SCT020 RMK PGS

Decode

Departure Runways

ID Width Length Bearing (true) Bearing (mag) Surface Threshold Offset Overrun Length
10 148 ft / 45 m 13,128 ft / 4,001 m 74.39° 97.16° Concrete 0 ft / 0 m 175 ft / 53 m
15 154 ft / 47 m 10,418 ft / 3,175 m 125.78° 148.55° Asphalt 0 ft / 0 m 185 ft / 56 m
28 148 ft / 45 m 13,128 ft / 4,001 m 254.38° 277.15° Concrete 0 ft / 0 m 175 ft / 53 m
33 154 ft / 47 m 10,418 ft / 3,175 m 305.78° 328.55° Asphalt 0 ft / 0 m 185 ft / 56 m

SBPS

Details ICAO SBPS (BPS)
Name Porto Seguro
Region Brazil
Timezone America/Bahia (UTC-3.0)
Stats Elevation 168 ft / 51 m (AMSL)
Location -16.438625° -39.080917°
Runways 1
Magnetic Variation 23.868° W

METAR

SBPS 172100Z 09007KT 9999 SCT017 26/23 Q1016

Decode

TAF

TAF SBPS 171530Z 1718/1818 07008KT 8000 SCT020 TN25/1808Z TX28/1815Z RMK PEA

Decode

Destination Runways

ID Width Length Bearing (true) Bearing (mag) Surface Threshold Offset Overrun Length
10 148 ft / 45 m 6,532 ft / 1,991 m 74.06° 97.93° Asphalt 0 ft / 0 m 195 ft / 59 m
28 148 ft / 45 m 6,532 ft / 1,991 m 254.06° 277.93° Asphalt 0 ft / 0 m 0 ft / 0 m

Popular Alternatives